Disclaimer   
PNR Super Search
 ♦ 
×
HashTag:
PNR Number:
Train Type:
Train:
From Station:
To Station:
Train Class:
2SSLCCEx3AFC2A1A3E
WL Quota:
DOJ From:
DOJ To:
Blogger:
Traveller:
Predictor:
Prediction:
WLRACConf
Stamper:
Final:
WLRACConfVoidQ-ConfUnStamped
Status:
Reaction:

Search
  Go  
 
Tue Mar 3, 2015 20:35:14 ISTHomeTrainsΣChainsAtlasPNRForumGalleryNewsFAQTripsMembersLoginFeedback
Tue Mar 3, 2015 20:35:14 IST
Post PNRPNR StatusModify Search

Ticket PNR Status Inquiry - PNR: 213-xxxxxxx (E-Ticket)

OLD STATUS

Status Last Updated on: Jul 15 2012 (4:19PM) IST

Date of Journey: Sun Aug 05, 2012   Class: AC 3-tier - 3A   (Total Seats available for this Class/Quota: Avbl >18)
Passenger 1: Confirmed (Booking Status: B1,40,GN)
Chart NOT Prepared

Amritsar - Mumbai LTT (Pathankot) Express/11058

Travel Time: 22h 28m    47 halts    Distance: 1125 km    Avg Speed: 50 km/hr
Peak Observed Speed: n/a
Type: Mail/Express
Zone: CR/Central
Departs @ 20:50 (Avg 29m late)
Platform# 4
SMTWTFS
NDLS/New Delhi 
Arrives @ 19:18 +1 night (Avg 3h 47m late)
Platform# 2
SMTWTFS
JL/Jalgaon Junction 

47 halts. 156 intermediate Stations between New Delhi and Jalgaon Junction

Show ALL intermediate Stations  Show Old Time-Table

#TrkCodeStation NameX/OArrivesAvgDepartsAvgHaltPFDay#KmSpeedElevZoneAddress
1/==/ASRAmritsar Junction  -08:30+1541-502.977233mNRAmritsar 143002, Punjab
2/==/JNLJandialaX  08:45+2708:47+272m21-483.768238mNRJandiala, Punjab
3/==/BEASBeas JunctionX  09:08+2709:10+272m21-459.961238mNRBeas, Punjab
4/==/KREKartarpurX  09:31+2709:33+262m11-438.473236mNRKartarpur, Punjab
5/==/JUCJalandhar City JunctionX  09:45+3109:55+2910m21-423.818239mNRJalandhar 144001, Punjab
6/==/JRCJalandhar Cantt. JunctionX  10:11+2310:13+232m21-418.970239mNRNear Rama Mandi, Punjab
7/==/PGWPhagwara JunctionX  10:27+2310:29+232m11-402.654245mNRPhagwara, Punjab
8/==/GRYGoraya  10:40+2410:42+242m11-392.864240mNRGoraya, Punjab
9/==/PHRPhillaur Junction  10:54+2310:56+242m11-380.133246mNRPhillaur, Punjab
10/==/LDHLudhiana Junction  11:20+2111:30+2710m41-367.029246mNRLudhiana 141001, Punjab
11|--|AHHAhmadgarh  12:23+1412:25+172m11-341.679256mNRAhmedgarh, Punjab
12|--|METMalerkotlaX  12:40+2212:42+222m21-321.753248mNRMalerkotla., Punjab
13|--|DUIDhuri Junction  13:01+2513:04+283m--1-304.973248mNRDhuri, Punjab
14|--|NBANabha  13:26+3813:28+392m11-278.070250mNRNabha, Punjab
15|--|PTAPatialaX  13:50+4513:53+483m11-252.137256mNRPatiala, Punjab
16|--|RPJRajpura JunctionOO  14:33+3614:35+372m21-227.359272mNRNH-1., Punjab
17/==/UBCAmbala CityXO  14:56+3314:58+332m11-206.821273mNRNH-1, Haryana
18/==/UMBAmbala Cantt. JunctionXO15:20+2615:55+1:0835m11-199.285278mNRAmbala 133001, Haryana
19/==/SHDMShahbad Markanda  16:09+4016:11+402m11-179.378267mNRShahabad Markanda, Haryana
20/==/KKDEKurukshetra JunctionX  16:28+4316:30+432m21-157.160260mNRKurukshetra, Haryana
21/==/NLKRNilokheriX  16:47+4116:49+412m--1-140.134254mNRNilokheri, Haryana
22/==/TRRTaraoriX  16:56+4016:58+412m21-136.140255mNRTaraori, Haryana
23/==/KUNKarnal  17:16+3817:18+382m11-124.066253mNRKarnal, Haryana
24/==/GRAGharaunda  17:34+3617:36+372m11-106.656244mNRGharaunda, Haryana
25/==/PNPPanipat JunctionX  17:54+3317:56+332m21-89.660235mNRPanipat, Haryana
26/==/SMKSamalkha  18:13+3318:15+332m11-72.657229mNRSamalkha, Haryana
27/==/GNUGanaur  18:28+3018:30+302m--1-60.460222mNRGanaur, Haryana
28/==/SNPSonipat  18:46+3218:48+322m11-44.548225mNRSonipat, Haryana
29/==/RDDERathdhanaX  19:01+3119:03+302m--1-34.050223mNRSonipat, Haryana
30/==/NURNarela  19:11+3019:13+302m--1-27.459222mNRNarela, Delhi NCT
31/==/ANDIAdarsh Nagar  19:30+3519:32+352m11-10.721214mNRShalimar Bagh, Delhi NCT
32/==/SZMDelhi Sabzi Mandi  19:51+3019:53+342m31-4.19220mNRGulabi Bagh, Delhi NCT
33/==/NDLSNew Delhi»X  20:20+3120:50+2930m410.034215mNRNew Delhi 110002, Delhi NCT
34/==/NZMDelhi Hazrat NizamuddinX  21:03+3721:05+372m417.457209mNRNew Delhi 110013, Delhi NCT
35/==/FDBFaridabadX  21:27+3721:29+392m3128.237206mNRold Faridabad, Haryana
36/==/BVHBallabgarhO  21:42+3521:44+362m--136.229203mNRFaridabad, Haryana
37/==/PWLPalwal  22:28+1722:30+182m--157.485200mNRPalwal, Haryana
38/==/KSVKosi Kalan  23:00+3823:02+402m2199.975189mNCRKosi Kalan, Uttar Pradesh
39/==/MTJMathura Junction  23:35+5223:40+545m11141.356179mNCRMathura, Uttar Pradesh
40/==/RKMRaja Ki MandiX  00:33+5900:35+1:002m22191.012170mNCRAgra, Uttar Pradesh
41/==/AGCAgra Cantt.X  00:55+5401:03+1:048m12195.079174mNCRAgra, Uttar Pradesh
42/==/DHODholpur JunctionXO  01:43+1:3301:45+1:352m22247.673177mNCRDholpur, Rajasthan
43/==/MRAMorenaX  02:07+1:4202:09+1:432m12274.556176mNCRMorena, Madhya Pradesh
44/==/GWLGwalior JunctionX  02:50+1:4602:58+1:438m12313.073214mNCRGwalior, Madhya Pradesh
45/==/DBADabraX  03:33+1:5403:35+1:552m22355.349207mNCRDabra(District-Gwalior), Madhya Pradesh
46/==/SORSonagirX  03:58+1:5304:00+1:582m--2374.246211mNCRDatia, Madhya Pradesh
47/==/DAADatiaX  04:15+2:0104:17+2:032m22385.746264mNCRDatia, Madhya Pradesh
48/==/JHSJhansi JunctionX  04:50+2:1805:00+2:2610m52410.761259mNCRJhansi, Uttar Pradesh
49/==/BABBabinaX  05:25+2:3505:27+2:352m12436.252285mNCRBabina, Uttar Pradesh
50/==/BZYBasai  05:41+2:3305:43+2:342m12448.351287mNCR07522289600(Gate ManMob. - 9452701575), Madhya Pradesh
51/==/TBTTalbahatX  05:58+2:3206:00+2:342m12461.252314mNCRKhaniyadhana Station Rd, Madhya Pradesh
52/==/LARLalitpurX  06:46+2:2606:48+2:282m22501.177373mNCRLalitpur, Uttar Pradesh
53/==/JLNJakhalaunO  07:01+2:3007:03+2:302m22517.899394mNCRLalitpur(05176-272220), Uttar Pradesh
54/==/DUADhauraXO  07:10+2:3507:12+2:362m--2529.420407mNCRDhaura Tanda, Madhya Pradesh
55/==/BINABina JunctionX  08:55+1:4209:00+1:435m32564.069414mWCRJn Pt - KATNI/GUNA/ BPL/JHS, Madhya Pradesh
56/==/MABAMandi BamoraX  09:15+1:5209:17+1:542m22581.278413mWCRState Highway 14, Madhya Pradesh
57/==/BAQGanj BasodaX  09:39+2:1009:41+2:102m22609.769415mWCRVidisha, Madhya Pradesh
58/==/GLGGulabhGanjX  09:57+2:0909:59+2:142m--2628.074433mWCRVidisha, Madhya Pradesh
59/==/BHSVidishaX  10:16+2:2610:18+2:342m22649.056433mWCRVidisha, Madhya Pradesh
60/==/SCISanchiX  10:28+2:3410:30+2:332m--2658.466428mWCRRaisen, Madhya Pradesh
61/==/BPLBhopal JunctionX  11:10+3:0811:15+3:125m12702.538497mWCRBhopal, Madhya Pradesh
62/==/HBJBhopal HabibGanj  11:25+3:1211:27+3:132m42708.864496mWCRHabibGanj, Madhya Pradesh
63/==/MDDPMandi Dip  11:42+3:1811:44+3:192m12724.962455mWCRMandideep, Madhya Pradesh
64/==/ODGObaidulla Ganj  11:57+3:2111:59+3:222m12738.454448mWCRObaidullaganj Raisen Dist., Madhya Pradesh
65/==/BNIBudniX  12:33+3:2612:35+3:262m12769.246311mWCRSehore 466445 Madhya pradesh, Madhya Pradesh
66/==/HBDHoshangabadX  12:44+3:3012:46+3:302m22776.232308mWCRHoshangabad, Madhya Pradesh
67/==/ETItarsi Junction  13:20+3:2213:25+3:305m22794.384329mWCRItarsi 461111, Madhya Pradesh
68/==/BPFBanapura  13:49+3:3913:51+3:402m22827.777314mWCRBanapura, Madhya Pradesh
69/==/TBNTimarni  14:13+3:4314:15+3:432m12855.961308mWCRTimarni, Madhya Pradesh
70/==/HDHarda  14:29+3:3814:31+3:382m12870.176289mWCRHarda, Madhya Pradesh
71/==/KKNKhirkiyaX  14:56+3:4514:58+3:452m12901.680281mWCRSH 15, Madhya Pradesh